createdAt,value
2022-11-19T00:03:13.569Z,3.8
2022-11-19T00:08:13.338Z,3.8
2022-11-19T00:13:13.333Z,3.6
2022-11-19T00:18:13.345Z,3.6
2022-11-19T00:23:14.649Z,3.8
2022-11-19T00:28:13.440Z,3.6
2022-11-19T00:33:13.593Z,3.7
2022-11-19T00:38:13.639Z,3.5
2022-11-19T00:43:13.356Z,3.4
2022-11-19T00:48:13.312Z,3.4
2022-11-19T00:53:13.347Z,3.2
2022-11-19T00:58:13.651Z,3.3
2022-11-19T01:03:13.337Z,3.1
2022-11-19T01:08:13.722Z,3.2
2022-11-19T01:13:13.367Z,3.1
2022-11-19T01:18:14.392Z,2.9
2022-11-19T01:23:15.218Z,2.9
2022-11-19T01:28:13.618Z,2.8
2022-11-19T01:33:13.422Z,2.7
2022-11-19T01:38:13.618Z,2.6
2022-11-19T01:43:13.412Z,2.7
2022-11-19T01:48:13.367Z,2.6
2022-11-19T01:53:13.598Z,2.6
2022-11-19T01:58:13.391Z,2.6
2022-11-19T02:03:13.934Z,2.5
2022-11-19T02:08:13.429Z,2.6
2022-11-19T02:13:13.522Z,2.5
2022-11-19T02:18:13.523Z,2.1
2022-11-19T02:23:13.407Z,2.1
2022-11-19T02:28:13.627Z,1.5
2022-11-19T02:33:13.385Z,1.3
2022-11-19T02:38:13.742Z,0.8
2022-11-19T02:43:13.398Z,0.5
2022-11-19T02:48:13.426Z,0.4
2022-11-19T02:53:13.372Z,0.3
2022-11-19T02:58:13.523Z,0.2
2022-11-19T03:03:13.360Z,0.2
2022-11-19T03:08:13.391Z,0.2
2022-11-19T03:13:13.360Z,0.3
2022-11-19T03:18:13.650Z,0.3
2022-11-19T03:23:13.429Z,0.3
2022-11-19T03:28:14.009Z,0.4
2022-11-19T03:33:13.423Z,0.4
2022-11-19T03:38:13.296Z,0.5
2022-11-19T03:43:13.625Z,0.4
2022-11-19T03:48:13.378Z,0.4
2022-11-19T03:53:13.803Z,0.4
2022-11-19T03:58:13.429Z,0.5
2022-11-19T04:03:13.633Z,0.4
2022-11-19T04:08:13.368Z,0.4
2022-11-19T04:13:13.552Z,0.4
2022-11-19T04:18:13.584Z,0.5
2022-11-19T04:23:13.417Z,0.6
2022-11-19T04:28:13.698Z,0.6
2022-11-19T04:33:13.411Z,0.6
2022-11-19T04:38:13.409Z,0.6
2022-11-19T04:43:13.770Z,0.6
2022-11-19T04:48:13.391Z,0.6
2022-11-19T04:53:13.680Z,0.6
2022-11-19T04:58:13.369Z,0.7
2022-11-19T05:03:13.393Z,0.7
2022-11-19T05:08:13.628Z,0.6
2022-11-19T05:13:13.389Z,0.8
2022-11-19T05:18:13.649Z,0.8
2022-11-19T05:23:13.597Z,0.8
2022-11-19T05:28:13.493Z,0.8
2022-11-19T05:33:13.772Z,0.6
2022-11-19T05:38:13.496Z,0.7
2022-11-19T05:43:13.737Z,0.7
2022-11-19T05:48:13.413Z,0.8
2022-11-19T05:53:13.427Z,0.7
2022-11-19T05:58:13.712Z,0.7
2022-11-19T06:03:13.448Z,0.6
2022-11-19T06:08:13.869Z,0.6
2022-11-19T06:13:13.336Z,0.6
2022-11-19T06:18:13.458Z,0.6
2022-11-19T06:23:13.690Z,0.7
2022-11-19T06:28:13.803Z,0.6
2022-11-19T06:33:13.741Z,0.8
2022-11-19T06:38:13.471Z,0.8
2022-11-19T06:43:13.421Z,0.8
2022-11-19T06:48:13.790Z,0.9
2022-11-19T06:53:13.408Z,0.8
2022-11-19T06:58:13.685Z,0.9
2022-11-19T07:03:13.436Z,0.9
2022-11-19T07:08:13.437Z,0.9
2022-11-19T07:13:13.645Z,0.8
2022-11-19T07:18:13.379Z,0.8
2022-11-19T07:28:13.563Z,0.8
2022-11-19T07:33:13.415Z,0.6
2022-11-19T07:38:13.428Z,0.6
2022-11-19T07:43:13.699Z,0.6
2022-11-19T07:48:13.509Z,0.6
2022-11-19T07:53:13.577Z,0.4
2022-11-19T07:58:13.613Z,0.5
2022-11-19T08:03:13.391Z,0.5
2022-11-19T08:08:13.610Z,0.4
2022-11-19T08:13:13.354Z,0.4
2022-11-19T08:18:13.514Z,0.4
2022-11-19T08:23:13.774Z,0.4
2022-11-19T08:28:13.563Z,0.4
2022-11-19T08:33:13.611Z,0.4
2022-11-19T08:38:13.377Z,0.4
2022-11-19T08:43:13.409Z,0.4
2022-11-19T08:48:13.569Z,0.3
2022-11-19T08:53:13.380Z,0.3
2022-11-19T08:58:13.547Z,0.4
2022-11-19T09:03:13.416Z,0.3
2022-11-19T09:08:13.576Z,0.3
2022-11-19T09:13:13.448Z,0.4
2022-11-19T09:18:13.555Z,0.3
2022-11-19T09:23:13.445Z,0.3
2022-11-19T09:28:13.735Z,0.4
2022-11-19T09:33:13.456Z,0.3
2022-11-19T09:38:13.633Z,0.4
2022-11-19T09:43:15.552Z,0.2
2022-11-19T09:48:13.455Z,0.1
2022-11-19T09:53:13.387Z,0.1
2022-11-19T09:58:13.433Z,0.1
2022-11-19T10:03:13.731Z,0.3
2022-11-19T10:08:13.376Z,0.4
2022-11-19T10:13:13.592Z,0.4
2022-11-19T10:18:13.428Z,0.4
2022-11-19T10:23:13.598Z,0.4
2022-11-19T10:28:13.378Z,0.6
2022-11-19T10:33:13.442Z,0.5
2022-11-19T10:38:13.631Z,0.4
2022-11-19T10:43:13.475Z,0.6
2022-11-19T10:48:13.691Z,0.6
2022-11-19T10:53:13.600Z,0.4
2022-11-19T10:58:13.508Z,0.6
2022-11-19T11:03:13.722Z,0.6
2022-11-19T11:08:13.413Z,0.6
2022-11-19T11:13:13.680Z,0.6
2022-11-19T11:18:13.410Z,0.9
2022-11-19T11:23:13.450Z,0.6
2022-11-19T11:28:13.630Z,0.6
2022-11-19T11:33:13.416Z,0.6
2022-11-19T11:38:13.582Z,0.6
2022-11-19T11:43:13.397Z,0.6
2022-11-19T11:48:13.525Z,0.6
2022-11-19T11:53:13.625Z,0.8
2022-11-19T11:58:13.431Z,0.8
2022-11-19T12:03:13.623Z,0.9
2022-11-19T12:08:13.557Z,0.9
2022-11-19T12:13:13.508Z,0.9
2022-11-19T12:18:13.636Z,0.8
2022-11-19T12:23:13.391Z,0.8
2022-11-19T12:28:13.798Z,0.8
2022-11-19T12:33:13.451Z,0.9
2022-11-19T12:38:13.496Z,1
2022-11-19T12:43:13.655Z,0.9
2022-11-19T12:48:13.445Z,0.8
2022-11-19T12:53:13.625Z,0.8
2022-11-19T12:58:13.412Z,0.8
2022-11-19T13:03:13.407Z,0.8
2022-11-19T13:08:13.778Z,0.8
2022-11-19T13:13:13.432Z,0.7
2022-11-19T13:18:13.661Z,0.8
2022-11-19T13:23:13.504Z,0.9
2022-11-19T13:28:13.490Z,0.8
2022-11-19T13:33:13.683Z,0.8
2022-11-19T13:38:35.950Z,0.6
2022-11-19T13:43:36.282Z,0.6
2022-11-19T13:48:35.861Z,0.6
2022-11-19T13:53:36.087Z,0.6
2022-11-19T13:58:35.934Z,0.6
2022-11-19T14:03:35.970Z,0.4
2022-11-19T14:08:36.092Z,0.5
2022-11-19T14:13:35.918Z,0.4
2022-11-19T14:18:36.008Z,0.3
2022-11-19T14:23:35.923Z,0.1
2022-11-19T14:28:35.870Z,0.1
2022-11-19T14:33:35.904Z,0.1
2022-11-19T14:38:36.016Z,0.1
2022-11-19T14:43:36.012Z,0.1
2022-11-19T14:48:36.178Z,0.1
2022-11-19T14:53:35.798Z,0.1
2022-11-19T14:58:35.810Z,0.1
2022-11-19T15:03:36.163Z,0.1
2022-11-19T15:08:35.865Z,0.1
2022-11-19T15:13:36.018Z,0.1
2022-11-19T15:18:35.799Z,0.1
2022-11-19T15:23:35.828Z,0.1
2022-11-19T15:28:36.151Z,0.1
2022-11-19T15:33:35.868Z,0.1
2022-11-19T15:38:35.852Z,0.2
2022-11-19T15:43:36.042Z,0.1
2022-11-19T15:48:35.883Z,0.1
2022-11-19T15:53:35.878Z,0.1
2022-11-19T15:58:36.037Z,0.1
2022-11-19T16:03:35.802Z,0.1
2022-11-19T16:09:22.611Z,0.1
2022-11-19T16:14:22.273Z,0.1
2022-11-19T16:19:22.315Z,0.2
2022-11-19T16:24:27.725Z,0.2
2022-11-19T16:29:22.324Z,0.1
2022-11-19T16:34:22.043Z,0.2
2022-11-19T16:39:22.488Z,0.2
2022-11-19T16:44:22.121Z,0.3
2022-11-19T16:54:22.525Z,0.2
2022-11-19T16:59:21.865Z,0.3
2022-11-19T17:04:22.132Z,0.1
2022-11-19T17:09:22.033Z,0.2
2022-11-19T17:14:22.095Z,0.3
2022-11-19T17:19:22.037Z,0.3
2022-11-19T17:24:26.586Z,0.3
2022-11-19T17:29:21.781Z,0.3
2022-11-19T17:34:22.424Z,0.3
2022-11-19T17:39:25.471Z,0.3
2022-11-19T17:44:22.271Z,0.3
2022-11-19T17:49:21.819Z,0.4
2022-11-19T17:54:22.187Z,0.3
2022-11-19T17:59:22.036Z,0.4
2022-11-19T18:04:22.257Z,0.3
2022-11-19T18:09:22.206Z,0.3
2022-11-19T18:14:21.765Z,0.3
2022-11-19T18:19:22.005Z,0.4
2022-11-19T18:24:22.049Z,0.4
2022-11-19T18:29:21.976Z,0.3
2022-11-19T18:34:22.053Z,0.3
2022-11-19T18:39:21.891Z,0.3
2022-11-19T18:44:21.819Z,0.3
2022-11-19T18:49:22.502Z,0.3
2022-11-19T18:54:21.895Z,0.3
2022-11-19T18:59:22.517Z,0.3
2022-11-19T19:04:21.802Z,0.3
2022-11-19T19:09:22.339Z,0.2
2022-11-19T19:14:21.902Z,0.1
2022-11-19T19:19:22.547Z,0.2
2022-11-19T19:24:21.872Z,0.2
2022-11-19T19:29:22.182Z,0.2
2022-11-19T19:34:21.970Z,0.2
2022-11-19T19:39:22.322Z,0.3
2022-11-19T19:44:22.120Z,0.2
2022-11-19T19:49:21.965Z,0.1
2022-11-19T19:54:21.886Z,0.2
2022-11-19T19:59:22.209Z,0.1
2022-11-19T20:04:21.863Z,0.2
2022-11-19T20:09:22.141Z,0.2
2022-11-19T20:14:21.796Z,0.2
2022-11-19T20:19:22.662Z,0
2022-11-19T20:24:21.833Z,0.1
2022-11-19T20:29:22.206Z,0
2022-11-19T20:34:21.796Z,-0.1
2022-11-19T20:39:22.257Z,-0.1
2022-11-19T20:44:22.507Z,-0.1
2022-11-19T20:49:22.355Z,-0.1
2022-11-19T20:54:21.833Z,-0.1
2022-11-19T20:59:22.167Z,-0.1
2022-11-19T21:04:22.188Z,-0.1
2022-11-19T21:09:22.164Z,-0.1
2022-11-19T21:14:22.158Z,-0.1
2022-11-19T21:19:21.953Z,-0.1
2022-11-19T21:24:21.842Z,-0.1
2022-11-19T21:29:22.031Z,-0.1
2022-11-19T21:34:22.020Z,-0.1
2022-11-19T21:39:22.148Z,-0.1
2022-11-19T21:44:22.204Z,-0.1
2022-11-19T21:49:22.173Z,-0.1
2022-11-19T21:54:21.827Z,-0.1
2022-11-19T21:59:22.330Z,-0.2
2022-11-19T22:04:21.890Z,-0.2
2022-11-19T22:09:22.459Z,-0.1
2022-11-19T22:14:21.864Z,-0.3
2022-11-19T22:19:22.203Z,-0.2
2022-11-19T22:24:21.814Z,-0.2
2022-11-19T22:29:22.086Z,-0.1
2022-11-19T22:34:22.130Z,-0.1
2022-11-19T22:39:22.042Z,0
2022-11-19T22:44:21.929Z,0
2022-11-19T22:49:22.377Z,-0.2
2022-11-19T22:54:21.844Z,-0.1
2022-11-19T22:59:22.156Z,-0.1
2022-11-19T23:04:22.057Z,-0.1
2022-11-19T23:09:22.051Z,-0.1
2022-11-19T23:14:22.060Z,-0.1
2022-11-19T23:19:22.086Z,-0.1
2022-11-19T23:24:21.864Z,-0.1
2022-11-19T23:29:22.881Z,-0.1
2022-11-19T23:34:21.917Z,-0.1
2022-11-19T23:39:22.287Z,0
2022-11-19T23:44:21.852Z,-0.1
2022-11-19T23:49:22.006Z,-0.1
2022-11-19T23:54:22.038Z,-0.1
2022-11-19T23:59:25.395Z,0
